sensor_id;sensor_type;location;lat;lon;timestamp;temperature;humidity
9941;DHT22;5009;50.656;7.188;2023-12-29T03:45:36;10.60;98.30
9941;DHT22;5009;50.656;7.188;2023-12-29T03:48:01;10.60;98.40
9941;DHT22;5009;50.656;7.188;2023-12-29T03:50:27;10.60;98.10
9941;DHT22;5009;50.656;7.188;2023-12-29T03:52:53;10.60;98.10
9941;DHT22;5009;50.656;7.188;2023-12-29T03:55:18;10.60;98.00
9941;DHT22;5009;50.656;7.188;2023-12-29T03:57:44;10.70;98.20
9941;DHT22;5009;50.656;7.188;2023-12-29T04:00:13;10.70;98.10
9941;DHT22;5009;50.656;7.188;2023-12-29T04:02:39;10.70;98.00
9941;DHT22;5009;50.656;7.188;2023-12-29T04:05:08;10.70;98.20
9941;DHT22;5009;50.656;7.188;2023-12-29T04:07:33;10.70;98.10
9941;DHT22;5009;50.656;7.188;2023-12-29T04:09:59;10.70;98.10
9941;DHT22;5009;50.656;7.188;2023-12-29T04:12:24;10.70;98.00
9941;DHT22;5009;50.656;7.188;2023-12-29T04:14:50;10.70;98.10
9941;DHT22;5009;50.656;7.188;2023-12-29T04:17:16;10.70;98.20
9941;DHT22;5009;50.656;7.188;2023-12-29T04:19:42;10.70;98.30
9941;DHT22;5009;50.656;7.188;2023-12-29T04:22:08;10.70;98.30
9941;DHT22;5009;50.656;7.188;2023-12-29T04:24:34;10.70;98.30
9941;DHT22;5009;50.656;7.188;2023-12-29T04:26:59;10.70;98.20
9941;DHT22;5009;50.656;7.188;2023-12-29T04:29:25;10.80;98.20
9941;DHT22;5009;50.656;7.188;2023-12-29T04:31:51;10.80;98.20
9941;DHT22;5009;50.656;7.188;2023-12-29T04:34:16;10.80;98.20
9941;DHT22;5009;50.656;7.188;2023-12-29T04:36:42;10.70;98.20
9941;DHT22;5009;50.656;7.188;2023-12-29T04:39:07;10.70;98.20
9941;DHT22;5009;50.656;7.188;2023-12-29T04:41:36;10.70;98.40
9941;DHT22;5009;50.656;7.188;2023-12-29T04:44:02;10.70;98.70
9941;DHT22;5009;50.656;7.188;2023-12-29T04:46:27;10.70;98.90
9941;DHT22;5009;50.656;7.188;2023-12-29T04:48:53;10.60;98.70
9941;DHT22;5009;50.656;7.188;2023-12-29T04:51:19;10.50;99.20
9941;DHT22;5009;50.656;7.188;2023-12-29T04:53:44;10.50;99.50
9941;DHT22;5009;50.656;7.188;2023-12-29T04:56:10;10.50;99.90
9941;DHT22;5009;50.656;7.188;2023-12-29T04:58:35;10.50;99.90
9941;DHT22;5009;50.656;7.188;2023-12-29T05:01:01;10.40;99.90
9941;DHT22;5009;50.656;7.188;2023-12-29T05:03:27;10.40;99.90
9941;DHT22;5009;50.656;7.188;2023-12-29T05:05:52;10.40;99.90
9941;DHT22;5009;50.656;7.188;2023-12-29T05:08:18;10.30;99.90
9941;DHT22;5009;50.656;7.188;2023-12-29T05:10:43;10.30;99.90
9941;DHT22;5009;50.656;7.188;2023-12-29T05:13:09;10.30;99.90
9941;DHT22;5009;50.656;7.188;2023-12-29T05:15:34;10.30;99.90
9941;DHT22;5009;50.656;7.188;2023-12-29T05:18:00;10.30;99.90
9941;DHT22;5009;50.656;7.188;2023-12-29T05:20:26;10.30;99.90
9941;DHT22;5009;50.656;7.188;2023-12-29T05:22:52;10.30;99.90
9941;DHT22;5009;50.656;7.188;2023-12-29T05:25:17;10.30;99.90
9941;DHT22;5009;50.656;7.188;2023-12-29T05:27:43;10.30;99.90
9941;DHT22;5009;50.656;7.188;2023-12-29T05:30:09;10.40;99.90
9941;DHT22;5009;50.656;7.188;2023-12-29T05:32:34;10.40;99.90
9941;DHT22;5009;50.656;7.188;2023-12-29T05:35:00;10.40;99.90
9941;DHT22;5009;50.656;7.188;2023-12-29T05:37:25;10.40;99.90
9941;DHT22;5009;50.656;7.188;2023-12-29T05:39:51;10.40;99.90
9941;DHT22;5009;50.656;7.188;2023-12-29T05:42:17;10.40;99.90
9941;DHT22;5009;50.656;7.188;2023-12-29T05:44:42;10.50;99.90
9941;DHT22;5009;50.656;7.188;2023-12-29T05:47:08;10.50;99.90
9941;DHT22;5009;50.656;7.188;2023-12-29T05:49:34;10.50;99.90
9941;DHT22;5009;50.656;7.188;2023-12-29T05:52:05;10.60;99.90
9941;DHT22;5009;50.656;7.188;2023-12-29T05:54:31;10.60;99.90
9941;DHT22;5009;50.656;7.188;2023-12-29T05:56:56;10.70;99.90
9941;DHT22;5009;50.656;7.188;2023-12-29T05:59:22;10.70;99.90
9941;DHT22;5009;50.656;7.188;2023-12-29T06:01:47;10.60;99.90
9941;DHT22;5009;50.656;7.188;2023-12-29T06:04:13;10.60;99.90
9941;DHT22;5009;50.656;7.188;2023-12-29T06:06:38;10.60;99.90
9941;DHT22;5009;50.656;7.188;2023-12-29T06:09:04;10.60;99.90
9941;DHT22;5009;50.656;7.188;2023-12-29T06:11:29;10.60;99.90
9941;DHT22;5009;50.656;7.188;2023-12-29T06:13:55;10.60;99.90
9941;DHT22;5009;50.656;7.188;2023-12-29T06:16:21;10.60;99.90
9941;DHT22;5009;50.656;7.188;2023-12-29T06:18:47;10.50;99.90
9941;DHT22;5009;50.656;7.188;2023-12-29T06:21:13;10.60;99.90
9941;DHT22;5009;50.656;7.188;2023-12-29T06:23:38;10.60;99.90
9941;DHT22;5009;50.656;7.188;2023-12-29T06:26:04;10.50;99.90
9941;DHT22;5009;50.656;7.188;2023-12-29T06:28:29;10.50;99.90
9941;DHT22;5009;50.656;7.188;2023-12-29T06:30:55;10.50;99.90
9941;DHT22;5009;50.656;7.188;2023-12-29T06:33:20;10.50;99.90
9941;DHT22;5009;50.656;7.188;2023-12-29T06:35:47;10.50;99.90
9941;DHT22;5009;50.656;7.188;2023-12-29T06:38:13;10.50;99.90
9941;DHT22;5009;50.656;7.188;2023-12-29T06:40:38;10.50;99.90
9941;DHT22;5009;50.656;7.188;2023-12-29T06:43:04;10.60;99.90
9941;DHT22;5009;50.656;7.188;2023-12-29T06:45:30;10.60;99.90
9941;DHT22;5009;50.656;7.188;2023-12-29T06:47:55;10.60;99.90
9941;DHT22;5009;50.656;7.188;2023-12-29T06:50:21;10.60;99.90
9941;DHT22;5009;50.656;7.188;2023-12-29T06:52:46;10.60;99.90
9941;DHT22;5009;50.656;7.188;2023-12-29T06:55:12;10.60;99.90
9941;DHT22;5009;50.656;7.188;2023-12-29T06:57:37;10.70;99.90
9941;DHT22;5009;50.656;7.188;2023-12-29T07:00:04;10.60;99.90
9941;DHT22;5009;50.656;7.188;2023-12-29T07:02:30;10.70;99.90
9941;DHT22;5009;50.656;7.188;2023-12-29T07:04:56;10.70;99.90
9941;DHT22;5009;50.656;7.188;2023-12-29T07:07:21;10.80;99.90
9941;DHT22;5009;50.656;7.188;2023-12-29T07:09:47;10.80;99.90
9941;DHT22;5009;50.656;7.188;2023-12-29T07:12:12;10.80;99.90
9941;DHT22;5009;50.656;7.188;2023-12-29T07:14:38;10.80;99.90
9941;DHT22;5009;50.656;7.188;2023-12-29T07:17:05;10.90;99.90
9941;DHT22;5009;50.656;7.188;2023-12-29T07:19:31;11.00;99.90
9941;DHT22;5009;50.656;7.188;2023-12-29T07:22:05;10.90;99.90
9941;DHT22;5009;50.656;7.188;2023-12-29T07:24:32;10.90;99.90
9941;DHT22;5009;50.656;7.188;2023-12-29T07:26:58;10.90;99.90
9941;DHT22;5009;50.656;7.188;2023-12-29T07:29:23;10.90;99.90
9941;DHT22;5009;50.656;7.188;2023-12-29T07:31:49;10.90;99.90
9941;DHT22;5009;50.656;7.188;2023-12-29T07:34:14;11.00;99.90
9941;DHT22;5009;50.656;7.188;2023-12-29T07:36:40;11.00;99.90
9941;DHT22;5009;50.656;7.188;2023-12-29T07:39:06;11.10;99.90
9941;DHT22;5009;50.656;7.188;2023-12-29T07:41:31;11.10;99.90
9941;DHT22;5009;50.656;7.188;2023-12-29T07:43:57;11.00;99.90
9941;DHT22;5009;50.656;7.188;2023-12-29T07:46:26;10.90;99.90
9941;DHT22;5009;50.656;7.188;2023-12-29T07:48:54;11.00;99.90
9941;DHT22;5009;50.656;7.188;2023-12-29T07:51:20;11.00;99.90
9941;DHT22;5009;50.656;7.188;2023-12-29T07:53:46;10.90;99.90
9941;DHT22;5009;50.656;7.188;2023-12-29T07:56:11;10.90;99.90
9941;DHT22;5009;50.656;7.188;2023-12-29T07:58:37;10.80;99.90
9941;DHT22;5009;50.656;7.188;2023-12-29T08:01:03;10.80;99.90
9941;DHT22;5009;50.656;7.188;2023-12-29T08:03:28;10.80;99.90
9941;DHT22;5009;50.656;7.188;2023-12-29T08:05:54;10.80;99.90
9941;DHT22;5009;50.656;7.188;2023-12-29T08:08:19;10.80;99.90
9941;DHT22;5009;50.656;7.188;2023-12-29T08:10:45;10.80;99.90
9941;DHT22;5009;50.656;7.188;2023-12-29T08:13:10;10.80;99.90
9941;DHT22;5009;50.656;7.188;2023-12-29T08:15:36;10.80;99.90
9941;DHT22;5009;50.656;7.188;2023-12-29T08:18:03;10.80;99.90
9941;DHT22;5009;50.656;7.188;2023-12-29T08:20:28;10.90;99.90
9941;DHT22;5009;50.656;7.188;2023-12-29T08:22:54;10.90;99.90
9941;DHT22;5009;50.656;7.188;2023-12-29T08:25:20;10.90;99.90
9941;DHT22;5009;50.656;7.188;2023-12-29T08:27:45;11.00;99.90
9941;DHT22;5009;50.656;7.188;2023-12-29T08:30:11;11.00;99.90
9941;DHT22;5009;50.656;7.188;2023-12-29T08:32:37;10.90;99.90
9941;DHT22;5009;50.656;7.188;2023-12-29T08:35:02;10.90;99.90
9941;DHT22;5009;50.656;7.188;2023-12-29T08:37:28;10.90;99.90
9941;DHT22;5009;50.656;7.188;2023-12-29T08:39:54;11.00;99.90
9941;DHT22;5009;50.656;7.188;2023-12-29T08:42:21;11.00;99.90
9941;DHT22;5009;50.656;7.188;2023-12-29T08:44:47;11.00;99.90
9941;DHT22;5009;50.656;7.188;2023-12-29T08:47:13;11.10;99.90
9941;DHT22;5009;50.656;7.188;2023-12-29T08:49:38;11.10;99.90
9941;DHT22;5009;50.656;7.188;2023-12-29T08:52:06;11.10;99.90
9941;DHT22;5009;50.656;7.188;2023-12-29T08:54:31;11.10;99.90
9941;DHT22;5009;50.656;7.188;2023-12-29T08:56:57;11.10;99.90
9941;DHT22;5009;50.656;7.188;2023-12-29T08:59:23;11.10;99.90
9941;DHT22;5009;50.656;7.188;2023-12-29T09:01:48;11.10;99.90
9941;DHT22;5009;50.656;7.188;2023-12-29T09:04:14;11.10;99.90
9941;DHT22;5009;50.656;7.188;2023-12-29T09:06:40;11.10;99.90
9941;DHT22;5009;50.656;7.188;2023-12-29T09:09:05;11.10;99.90
9941;DHT22;5009;50.656;7.188;2023-12-29T09:11:31;11.20;99.90
9941;DHT22;5009;50.656;7.188;2023-12-29T09:13:56;11.20;99.90
9941;DHT22;5009;50.656;7.188;2023-12-29T09:16:22;11.20;99.90
9941;DHT22;5009;50.656;7.188;2023-12-29T09:18:47;11.20;99.90
9941;DHT22;5009;50.656;7.188;2023-12-29T09:21:13;11.20;99.90
9941;DHT22;5009;50.656;7.188;2023-12-29T09:23:38;11.30;99.90
9941;DHT22;5009;50.656;7.188;2023-12-29T09:26:04;11.40;99.90
9941;DHT22;5009;50.656;7.188;2023-12-29T09:28:32;11.40;99.90
9941;DHT22;5009;50.656;7.188;2023-12-29T09:30:58;11.40;99.90
9941;DHT22;5009;50.656;7.188;2023-12-29T09:33:24;11.40;99.90
9941;DHT22;5009;50.656;7.188;2023-12-29T09:35:50;11.40;99.90
9941;DHT22;5009;50.656;7.188;2023-12-29T09:38:18;11.40;99.90
9941;DHT22;5009;50.656;7.188;2023-12-29T09:40:43;11.40;99.90
9941;DHT22;5009;50.656;7.188;2023-12-29T09:43:09;11.50;99.90
9941;DHT22;5009;50.656;7.188;2023-12-29T09:45:37;11.50;99.90
9941;DHT22;5009;50.656;7.188;2023-12-29T09:48:11;11.40;99.90
9941;DHT22;5009;50.656;7.188;2023-12-29T09:50:39;11.40;99.90
9941;DHT22;5009;50.656;7.188;2023-12-29T09:53:05;11.50;99.90
9941;DHT22;5009;50.656;7.188;2023-12-29T09:55:33;11.50;99.90
9941;DHT22;5009;50.656;7.188;2023-12-29T09:57:59;11.60;99.90
9941;DHT22;5009;50.656;7.188;2023-12-29T10:00:26;11.60;99.90
9941;DHT22;5009;50.656;7.188;2023-12-29T10:02:52;11.70;99.90
9941;DHT22;5009;50.656;7.188;2023-12-29T10:05:18;11.70;99.90
9941;DHT22;5009;50.656;7.188;2023-12-29T10:07:45;11.70;99.90
9941;DHT22;5009;50.656;7.188;2023-12-29T10:10:15;11.70;99.90
9941;DHT22;5009;50.656;7.188;2023-12-29T10:12:41;11.80;99.90
9941;DHT22;5009;50.656;7.188;2023-12-29T10:17:52;11.80;99.90
9941;DHT22;5009;50.656;7.188;2023-12-29T10:23:11;11.90;99.90
9941;DHT22;5009;50.656;7.188;2023-12-29T10:25:39;11.90;99.90
9941;DHT22;5009;50.656;7.188;2023-12-29T10:28:06;12.00;99.90
9941;DHT22;5009;50.656;7.188;2023-12-29T10:30:32;12.10;99.90
9941;DHT22;5009;50.656;7.188;2023-12-29T10:32:57;12.10;99.70
9941;DHT22;5009;50.656;7.188;2023-12-29T10:35:25;12.20;99.70
9941;DHT22;5009;50.656;7.188;2023-12-29T10:37:51;12.10;99.30
9941;DHT22;5009;50.656;7.188;2023-12-29T10:40:18;12.10;99.20
9941;DHT22;5009;50.656;7.188;2023-12-29T10:42:55;12.00;99.30
9941;DHT22;5009;50.656;7.188;2023-12-29T10:45:22;12.00;99.80
9941;DHT22;5009;50.656;7.188;2023-12-29T10:47:50;12.10;99.70
9941;DHT22;5009;50.656;7.188;2023-12-29T10:50:16;12.20;99.30
9941;DHT22;5009;50.656;7.188;2023-12-29T10:52:41;12.10;99.30
9941;DHT22;5009;50.656;7.188;2023-12-29T10:55:10;12.20;99.20
9941;DHT22;5009;50.656;7.188;2023-12-29T10:57:40;12.30;98.80
9941;DHT22;5009;50.656;7.188;2023-12-29T11:00:06;12.30;98.80
9941;DHT22;5009;50.656;7.188;2023-12-29T11:02:37;12.40;98.90
9941;DHT22;5009;50.656;7.188;2023-12-29T11:05:06;12.40;98.60
9941;DHT22;5009;50.656;7.188;2023-12-29T11:07:39;12.50;98.70
9941;DHT22;5009;50.656;7.188;2023-12-29T11:10:09;12.60;98.50
9941;DHT22;5009;50.656;7.188;2023-12-29T11:12:38;12.60;98.20
9941;DHT22;5009;50.656;7.188;2023-12-29T11:15:05;12.60;97.90
9941;DHT22;5009;50.656;7.188;2023-12-29T11:17:33;12.70;98.20
9941;DHT22;5009;50.656;7.188;2023-12-29T11:20:00;12.90;97.80
9941;DHT22;5009;50.656;7.188;2023-12-29T11:22:31;12.90;97.40
9941;DHT22;5009;50.656;7.188;2023-12-29T11:25:00;13.10;97.70
9941;DHT22;5009;50.656;7.188;2023-12-29T11:27:30;13.20;97.30
9941;DHT22;5009;50.656;7.188;2023-12-29T11:29:58;13.20;97.10
9941;DHT22;5009;50.656;7.188;2023-12-29T11:32:41;13.30;97.10
9941;DHT22;5009;50.656;7.188;2023-12-29T11:35:22;13.30;96.90
9941;DHT22;5009;50.656;7.188;2023-12-29T11:38:18;12.90;96.80
9941;DHT22;5009;50.656;7.188;2023-12-29T11:40:52;12.90;97.00
9941;DHT22;5009;50.656;7.188;2023-12-29T11:43:22;12.90;97.30
9941;DHT22;5009;50.656;7.188;2023-12-29T11:45:49;13.00;97.30
9941;DHT22;5009;50.656;7.188;2023-12-29T11:51:33;13.10;97.20
9941;DHT22;5009;50.656;7.188;2023-12-29T11:54:01;13.20;97.20
9941;DHT22;5009;50.656;7.188;2023-12-29T11:56:38;13.20;97.20
9941;DHT22;5009;50.656;7.188;2023-12-29T12:01:47;13.40;96.90
9941;DHT22;5009;50.656;7.188;2023-12-29T12:04:39;13.40;96.80
9941;DHT22;5009;50.656;7.188;2023-12-29T12:07:07;13.40;96.70
9941;DHT22;5009;50.656;7.188;2023-12-29T12:09:34;13.40;96.70
9941;DHT22;5009;50.656;7.188;2023-12-29T12:12:01;13.40;96.70
9941;DHT22;5009;50.656;7.188;2023-12-29T12:17:09;13.30;97.00
9941;DHT22;5009;50.656;7.188;2023-12-29T12:19:36;13.30;96.90
9941;DHT22;5009;50.656;7.188;2023-12-29T12:22:02;13.20;97.00
9941;DHT22;5009;50.656;7.188;2023-12-29T12:24:28;13.00;97.10
9941;DHT22;5009;50.656;7.188;2023-12-29T12:26:56;13.10;97.40
9941;DHT22;5009;50.656;7.188;2023-12-29T12:29:22;13.00;97.40
9941;DHT22;5009;50.656;7.188;2023-12-29T12:32:06;13.20;97.70
9941;DHT22;5009;50.656;7.188;2023-12-29T12:34:39;13.10;97.30
9941;DHT22;5009;50.656;7.188;2023-12-29T12:37:04;13.00;97.40
9941;DHT22;5009;50.656;7.188;2023-12-29T12:39:40;13.00;97.40
9941;DHT22;5009;50.656;7.188;2023-12-29T12:42:06;13.00;97.50
9941;DHT22;5009;50.656;7.188;2023-12-29T12:44:31;13.00;97.60
9941;DHT22;5009;50.656;7.188;2023-12-29T12:46:59;12.90;97.90
9941;DHT22;5009;50.656;7.188;2023-12-29T12:49:29;12.90;97.80
9941;DHT22;5009;50.656;7.188;2023-12-29T12:51:55;12.90;97.80
9941;DHT22;5009;50.656;7.188;2023-12-29T12:54:21;12.90;97.90
9941;DHT22;5009;50.656;7.188;2023-12-29T12:56:47;12.90;97.50
9941;DHT22;5009;50.656;7.188;2023-12-29T12:59:13;12.90;97.90
9941;DHT22;5009;50.656;7.188;2023-12-29T13:01:39;13.00;98.00
9941;DHT22;5009;50.656;7.188;2023-12-29T13:04:05;13.00;97.50
9941;DHT22;5009;50.656;7.188;2023-12-29T13:06:32;12.90;97.30
9941;DHT22;5009;50.656;7.188;2023-12-29T13:08:59;13.10;97.50
9941;DHT22;5009;50.656;7.188;2023-12-29T13:11:24;13.10;97.40
9941;DHT22;5009;50.656;7.188;2023-12-29T13:13:51;13.00;97.30
9941;DHT22;5009;50.656;7.188;2023-12-29T13:16:35;13.00;97.60
9941;DHT22;5009;50.656;7.188;2023-12-29T13:19:18;13.00;97.50
9941;DHT22;5009;50.656;7.188;2023-12-29T13:21:48;13.10;97.50
9941;DHT22;5009;50.656;7.188;2023-12-29T13:24:15;13.10;97.50
9941;DHT22;5009;50.656;7.188;2023-12-29T13:26:47;13.20;97.50
9941;DHT22;5009;50.656;7.188;2023-12-29T13:29:18;13.00;97.50
9941;DHT22;5009;50.656;7.188;2023-12-29T13:31:47;12.80;97.80
9941;DHT22;5009;50.656;7.188;2023-12-29T13:34:19;12.80;98.20
9941;DHT22;5009;50.656;7.188;2023-12-29T13:36:51;12.90;98.10
9941;DHT22;5009;50.656;7.188;2023-12-29T13:41:52;12.80;98.30
9941;DHT22;5009;50.656;7.188;2023-12-29T13:44:18;12.80;98.20
9941;DHT22;5009;50.656;7.188;2023-12-29T13:46:48;12.80;98.30
9941;DHT22;5009;50.656;7.188;2023-12-29T13:49:19;12.80;98.20
9941;DHT22;5009;50.656;7.188;2023-12-29T13:51:44;12.70;98.60
9941;DHT22;5009;50.656;7.188;2023-12-29T13:54:10;12.70;98.80
9941;DHT22;5009;50.656;7.188;2023-12-29T13:56:36;12.60;98.90
9941;DHT22;5009;50.656;7.188;2023-12-29T13:59:02;12.50;99.20
9941;DHT22;5009;50.656;7.188;2023-12-29T14:01:36;12.60;99.50
9941;DHT22;5009;50.656;7.188;2023-12-29T14:04:03;12.60;99.30
9941;DHT22;5009;50.656;7.188;2023-12-29T14:06:49;12.50;99.70
9941;DHT22;5009;50.656;7.188;2023-12-29T14:09:16;12.40;99.90
9941;DHT22;5009;50.656;7.188;2023-12-29T14:11:47;12.30;99.90
9941;DHT22;5009;50.656;7.188;2023-12-29T14:14:13;12.20;99.90
9941;DHT22;5009;50.656;7.188;2023-12-29T14:16:40;12.20;99.90
9941;DHT22;5009;50.656;7.188;2023-12-29T14:19:05;12.20;99.90
9941;DHT22;5009;50.656;7.188;2023-12-29T14:21:32;12.20;99.90
9941;DHT22;5009;50.656;7.188;2023-12-29T14:24:15;12.20;99.90
9941;DHT22;5009;50.656;7.188;2023-12-29T14:26:42;12.10;99.90
9941;DHT22;5009;50.656;7.188;2023-12-29T14:29:18;12.10;99.90
9941;DHT22;5009;50.656;7.188;2023-12-29T14:31:45;12.00;99.90
9941;DHT22;5009;50.656;7.188;2023-12-29T14:34:12;12.00;99.90
9941;DHT22;5009;50.656;7.188;2023-12-29T14:36:40;11.90;99.90
9941;DHT22;5009;50.656;7.188;2023-12-29T14:39:06;11.90;99.90
9941;DHT22;5009;50.656;7.188;2023-12-29T14:41:32;11.80;99.90
9941;DHT22;5009;50.656;7.188;2023-12-29T14:43:58;11.80;99.90
9941;DHT22;5009;50.656;7.188;2023-12-29T14:46:24;11.90;99.90
9941;DHT22;5009;50.656;7.188;2023-12-29T14:48:51;11.90;99.90
9941;DHT22;5009;50.656;7.188;2023-12-29T14:51:17;11.90;99.90
9941;DHT22;5009;50.656;7.188;2023-12-29T14:53:47;11.90;99.90
9941;DHT22;5009;50.656;7.188;2023-12-29T14:56:14;11.90;99.90
9941;DHT22;5009;50.656;7.188;2023-12-29T14:58:40;11.80;99.90
9941;DHT22;5009;50.656;7.188;2023-12-29T15:01:06;11.90;99.90
9941;DHT22;5009;50.656;7.188;2023-12-29T15:03:32;11.80;99.90
9941;DHT22;5009;50.656;7.188;2023-12-29T15:05:58;11.80;99.90
9941;DHT22;5009;50.656;7.188;2023-12-29T15:08:24;11.80;99.90
9941;DHT22;5009;50.656;7.188;2023-12-29T15:10:50;11.80;99.90
9941;DHT22;5009;50.656;7.188;2023-12-29T15:13:16;11.80;99.90
9941;DHT22;5009;50.656;7.188;2023-12-29T15:15:42;11.80;99.90
9941;DHT22;5009;50.656;7.188;2023-12-29T15:18:08;11.80;99.90
9941;DHT22;5009;50.656;7.188;2023-12-29T15:20:34;11.80;99.90
9941;DHT22;5009;50.656;7.188;2023-12-29T15:23:00;11.80;99.90
9941;DHT22;5009;50.656;7.188;2023-12-29T15:25:27;11.80;99.90
9941;DHT22;5009;50.656;7.188;2023-12-29T15:27:53;11.80;99.90
9941;DHT22;5009;50.656;7.188;2023-12-29T15:30:19;11.80;99.90
9941;DHT22;5009;50.656;7.188;2023-12-29T15:32:45;11.70;99.90
9941;DHT22;5009;50.656;7.188;2023-12-29T15:35:11;11.70;99.90
9941;DHT22;5009;50.656;7.188;2023-12-29T15:37:36;11.70;99.90
9941;DHT22;5009;50.656;7.188;2023-12-29T15:40:02;11.70;99.90
9941;DHT22;5009;50.656;7.188;2023-12-29T15:42:29;11.70;99.90
9941;DHT22;5009;50.656;7.188;2023-12-29T15:44:55;11.70;99.90
9941;DHT22;5009;50.656;7.188;2023-12-29T15:47:20;11.70;99.90
9941;DHT22;5009;50.656;7.188;2023-12-29T15:49:46;11.70;99.90
9941;DHT22;5009;50.656;7.188;2023-12-29T15:52:12;11.70;99.90
9941;DHT22;5009;50.656;7.188;2023-12-29T15:54:37;11.70;99.90
9941;DHT22;5009;50.656;7.188;2023-12-29T15:57:04;11.70;99.90
9941;DHT22;5009;50.656;7.188;2023-12-29T15:59:36;11.60;99.90
9941;DHT22;5009;50.656;7.188;2023-12-29T16:02:01;11.50;99.90
9941;DHT22;5009;50.656;7.188;2023-12-29T16:04:27;11.50;99.90
9941;DHT22;5009;50.656;7.188;2023-12-29T16:06:56;11.50;99.90
9941;DHT22;5009;50.656;7.188;2023-12-29T16:09:21;11.50;99.90
9941;DHT22;5009;50.656;7.188;2023-12-29T16:11:47;11.50;99.90
9941;DHT22;5009;50.656;7.188;2023-12-29T16:14:15;11.50;99.90
9941;DHT22;5009;50.656;7.188;2023-12-29T16:16:42;11.50;99.90
9941;DHT22;5009;50.656;7.188;2023-12-29T16:19:08;11.50;99.90
9941;DHT22;5009;50.656;7.188;2023-12-29T16:21:37;11.50;99.90
9941;DHT22;5009;50.656;7.188;2023-12-29T16:24:07;11.50;99.90
9941;DHT22;5009;50.656;7.188;2023-12-29T16:26:33;11.50;99.90
9941;DHT22;5009;50.656;7.188;2023-12-29T16:28:59;11.50;99.90
9941;DHT22;5009;50.656;7.188;2023-12-29T16:31:26;11.50;99.90
9941;DHT22;5009;50.656;7.188;2023-12-29T16:33:51;11.40;99.90
9941;DHT22;5009;50.656;7.188;2023-12-29T16:36:17;11.40;99.90
9941;DHT22;5009;50.656;7.188;2023-12-29T16:38:48;11.40;99.90
9941;DHT22;5009;50.656;7.188;2023-12-29T16:41:14;11.40;99.90
9941;DHT22;5009;50.656;7.188;2023-12-29T16:43:40;11.40;99.90
9941;DHT22;5009;50.656;7.188;2023-12-29T16:46:06;11.30;99.90
9941;DHT22;5009;50.656;7.188;2023-12-29T16:48:33;11.30;99.90
9941;DHT22;5009;50.656;7.188;2023-12-29T16:50:58;11.30;99.90
9941;DHT22;5009;50.656;7.188;2023-12-29T16:53:24;11.30;99.90
9941;DHT22;5009;50.656;7.188;2023-12-29T16:55:50;11.20;99.90
9941;DHT22;5009;50.656;7.188;2023-12-29T16:58:16;11.20;99.90
9941;DHT22;5009;50.656;7.188;2023-12-29T17:00:48;11.20;99.90
9941;DHT22;5009;50.656;7.188;2023-12-29T17:03:14;11.30;99.90
9941;DHT22;5009;50.656;7.188;2023-12-29T17:05:40;11.30;99.90
9941;DHT22;5009;50.656;7.188;2023-12-29T17:08:06;11.30;99.90
9941;DHT22;5009;50.656;7.188;2023-12-29T17:10:32;11.20;99.90
9941;DHT22;5009;50.656;7.188;2023-12-29T17:12:57;11.20;99.90
9941;DHT22;5009;50.656;7.188;2023-12-29T17:15:23;11.20;99.90
9941;DHT22;5009;50.656;7.188;2023-12-29T17:17:48;11.20;99.90
9941;DHT22;5009;50.656;7.188;2023-12-29T17:20:14;11.20;99.90
9941;DHT22;5009;50.656;7.188;2023-12-29T17:22:40;11.20;99.90
9941;DHT22;5009;50.656;7.188;2023-12-29T17:25:06;11.20;99.90
9941;DHT22;5009;50.656;7.188;2023-12-29T17:27:31;11.20;99.90
9941;DHT22;5009;50.656;7.188;2023-12-29T17:29:57;11.20;99.90
9941;DHT22;5009;50.656;7.188;2023-12-29T17:32:22;11.20;99.90
9941;DHT22;5009;50.656;7.188;2023-12-29T17:34:49;11.20;99.90
9941;DHT22;5009;50.656;7.188;2023-12-29T17:37:15;11.20;99.90
9941;DHT22;5009;50.656;7.188;2023-12-29T17:39:41;11.20;99.90
9941;DHT22;5009;50.656;7.188;2023-12-29T17:42:06;11.20;99.90
9941;DHT22;5009;50.656;7.188;2023-12-29T17:44:39;11.20;99.90
9941;DHT22;5009;50.656;7.188;2023-12-29T17:47:05;11.30;99.90
9941;DHT22;5009;50.656;7.188;2023-12-29T17:49:30;11.30;99.90
9941;DHT22;5009;50.656;7.188;2023-12-29T17:51:56;11.20;99.90
9941;DHT22;5009;50.656;7.188;2023-12-29T17:54:26;11.20;99.90
9941;DHT22;5009;50.656;7.188;2023-12-29T17:56:52;11.20;99.90
9941;DHT22;5009;50.656;7.188;2023-12-29T17:59:18;11.30;99.90
9941;DHT22;5009;50.656;7.188;2023-12-29T18:01:50;11.30;99.90
9941;DHT22;5009;50.656;7.188;2023-12-29T18:04:15;11.30;99.90
9941;DHT22;5009;50.656;7.188;2023-12-29T18:06:41;11.20;99.90
9941;DHT22;5009;50.656;7.188;2023-12-29T18:09:07;11.20;99.90
9941;DHT22;5009;50.656;7.188;2023-12-29T18:11:36;11.20;99.90
9941;DHT22;5009;50.656;7.188;2023-12-29T18:14:02;11.20;99.90
9941;DHT22;5009;50.656;7.188;2023-12-29T18:16:28;11.20;99.90
9941;DHT22;5009;50.656;7.188;2023-12-29T18:18:56;11.10;99.90
9941;DHT22;5009;50.656;7.188;2023-12-29T18:21:22;11.10;99.90
9941;DHT22;5009;50.656;7.188;2023-12-29T18:23:47;11.20;99.90
9941;DHT22;5009;50.656;7.188;2023-12-29T18:26:13;11.20;99.90
9941;DHT22;5009;50.656;7.188;2023-12-29T18:28:38;11.20;99.90
9941;DHT22;5009;50.656;7.188;2023-12-29T18:31:05;11.30;99.90
9941;DHT22;5009;50.656;7.188;2023-12-29T18:33:31;11.30;99.90
9941;DHT22;5009;50.656;7.188;2023-12-29T18:36:02;11.30;99.90
9941;DHT22;5009;50.656;7.188;2023-12-29T18:38:28;11.20;99.90
9941;DHT22;5009;50.656;7.188;2023-12-29T18:40:53;11.30;99.90
9941;DHT22;5009;50.656;7.188;2023-12-29T18:43:19;11.30;99.90
9941;DHT22;5009;50.656;7.188;2023-12-29T18:45:44;11.20;99.90
9941;DHT22;5009;50.656;7.188;2023-12-29T18:48:10;11.20;99.90
9941;DHT22;5009;50.656;7.188;2023-12-29T18:50:37;11.10;99.90
9941;DHT22;5009;50.656;7.188;2023-12-29T18:53:02;11.00;99.90
9941;DHT22;5009;50.656;7.188;2023-12-29T18:55:30;11.00;99.90
9941;DHT22;5009;50.656;7.188;2023-12-29T18:57:55;11.00;99.90
9941;DHT22;5009;50.656;7.188;2023-12-29T19:00:21;10.90;99.90
9941;DHT22;5009;50.656;7.188;2023-12-29T19:02:46;10.90;99.90
9941;DHT22;5009;50.656;7.188;2023-12-29T19:05:12;10.80;99.90
9941;DHT22;5009;50.656;7.188;2023-12-29T19:07:38;10.80;99.90
9941;DHT22;5009;50.656;7.188;2023-12-29T19:10:04;10.80;99.90
9941;DHT22;5009;50.656;7.188;2023-12-29T19:12:29;10.70;99.90
9941;DHT22;5009;50.656;7.188;2023-12-29T19:14:55;10.70;99.90
9941;DHT22;5009;50.656;7.188;2023-12-29T19:17:21;10.70;99.90
9941;DHT22;5009;50.656;7.188;2023-12-29T19:19:48;10.70;99.90
9941;DHT22;5009;50.656;7.188;2023-12-29T19:22:14;10.70;99.90
9941;DHT22;5009;50.656;7.188;2023-12-29T19:24:39;10.80;99.90
9941;DHT22;5009;50.656;7.188;2023-12-29T19:27:07;10.80;99.90
9941;DHT22;5009;50.656;7.188;2023-12-29T19:29:33;10.80;99.90
9941;DHT22;5009;50.656;7.188;2023-12-29T19:31:58;10.90;99.90
9941;DHT22;5009;50.656;7.188;2023-12-29T19:34:24;10.90;99.90
9941;DHT22;5009;50.656;7.188;2023-12-29T19:36:49;10.90;99.90
9941;DHT22;5009;50.656;7.188;2023-12-29T19:39:15;10.90;99.90
9941;DHT22;5009;50.656;7.188;2023-12-29T19:41:41;10.90;99.90
9941;DHT22;5009;50.656;7.188;2023-12-29T19:44:07;10.90;99.90
9941;DHT22;5009;50.656;7.188;2023-12-29T19:46:33;11.00;99.90
9941;DHT22;5009;50.656;7.188;2023-12-29T19:49:04;11.00;99.90
9941;DHT22;5009;50.656;7.188;2023-12-29T19:51:29;11.00;99.90
9941;DHT22;5009;50.656;7.188;2023-12-29T19:53:55;11.00;99.90
9941;DHT22;5009;50.656;7.188;2023-12-29T19:56:24;10.90;99.90
9941;DHT22;5009;50.656;7.188;2023-12-29T19:58:51;10.90;99.90
9941;DHT22;5009;50.656;7.188;2023-12-29T20:01:18;10.90;99.90